sensor_id;sensor_type;location;lat;lon;timestamp;temperature;humidity
40255;DHT22;25973;52.368;4.940;2023-03-01T00:01:24;4.10;99.90
40255;DHT22;25973;52.368;4.940;2023-03-01T00:03:51;4.10;99.90
40255;DHT22;25973;52.368;4.940;2023-03-01T00:06:18;4.10;99.90
40255;DHT22;25973;52.368;4.940;2023-03-01T00:08:44;4.10;99.90
40255;DHT22;25973;52.368;4.940;2023-03-01T00:11:15;4.10;99.90
40255;DHT22;25973;52.368;4.940;2023-03-01T00:13:43;4.10;99.90
40255;DHT22;25973;52.368;4.940;2023-03-01T00:16:18;4.10;99.90
40255;DHT22;25973;52.368;4.940;2023-03-01T00:18:44;4.10;99.90
40255;DHT22;25973;52.368;4.940;2023-03-01T00:21:09;4.10;99.90
40255;DHT22;25973;52.368;4.940;2023-03-01T00:23:35;4.20;99.90
40255;DHT22;25973;52.368;4.940;2023-03-01T00:26:02;4.20;99.90
40255;DHT22;25973;52.368;4.940;2023-03-01T00:28:31;4.20;99.90
40255;DHT22;25973;52.368;4.940;2023-03-01T00:31:03;4.20;99.90
40255;DHT22;25973;52.368;4.940;2023-03-01T00:33:28;4.20;99.90
40255;DHT22;25973;52.368;4.940;2023-03-01T00:35:54;4.20;99.90
40255;DHT22;25973;52.368;4.940;2023-03-01T00:38:20;4.20;99.90
40255;DHT22;25973;52.368;4.940;2023-03-01T00:40:45;4.20;99.90
40255;DHT22;25973;52.368;4.940;2023-03-01T00:43:11;4.20;99.90
40255;DHT22;25973;52.368;4.940;2023-03-01T00:45:36;4.20;99.90
40255;DHT22;25973;52.368;4.940;2023-03-01T00:48:02;4.20;99.90
40255;DHT22;25973;52.368;4.940;2023-03-01T00:50:28;4.20;99.90
40255;DHT22;25973;52.368;4.940;2023-03-01T00:52:54;4.20;99.90
40255;DHT22;25973;52.368;4.940;2023-03-01T00:55:20;4.20;99.90
40255;DHT22;25973;52.368;4.940;2023-03-01T00:57:46;4.20;99.90
40255;DHT22;25973;52.368;4.940;2023-03-01T01:00:12;4.20;99.90
40255;DHT22;25973;52.368;4.940;2023-03-01T01:02:37;4.20;99.90
40255;DHT22;25973;52.368;4.940;2023-03-01T01:05:04;4.20;99.90
40255;DHT22;25973;52.368;4.940;2023-03-01T01:07:29;4.20;99.90
40255;DHT22;25973;52.368;4.940;2023-03-01T01:09:55;4.20;99.90
40255;DHT22;25973;52.368;4.940;2023-03-01T01:12:21;4.20;99.90
40255;DHT22;25973;52.368;4.940;2023-03-01T01:14:46;4.20;99.90
40255;DHT22;25973;52.368;4.940;2023-03-01T01:17:12;4.20;99.90
40255;DHT22;25973;52.368;4.940;2023-03-01T01:19:38;4.20;99.90
40255;DHT22;25973;52.368;4.940;2023-03-01T01:22:03;4.20;99.90
40255;DHT22;25973;52.368;4.940;2023-03-01T01:24:29;4.20;99.90
40255;DHT22;25973;52.368;4.940;2023-03-01T01:26:55;4.20;99.90
40255;DHT22;25973;52.368;4.940;2023-03-01T01:29:21;4.20;99.90
40255;DHT22;25973;52.368;4.940;2023-03-01T01:31:46;4.10;99.90
40255;DHT22;25973;52.368;4.940;2023-03-01T01:34:18;4.10;99.90
40255;DHT22;25973;52.368;4.940;2023-03-01T01:36:48;4.10;99.90
40255;DHT22;25973;52.368;4.940;2023-03-01T01:39:14;4.10;99.90
40255;DHT22;25973;52.368;4.940;2023-03-01T01:41:41;4.10;99.90
40255;DHT22;25973;52.368;4.940;2023-03-01T01:46:56;4.00;99.90
40255;DHT22;25973;52.368;4.940;2023-03-01T01:49:27;4.00;99.90
40255;DHT22;25973;52.368;4.940;2023-03-01T01:52:00;3.90;99.90
40255;DHT22;25973;52.368;4.940;2023-03-01T01:54:46;3.90;99.90
40255;DHT22;25973;52.368;4.940;2023-03-01T01:57:18;3.90;99.90
40255;DHT22;25973;52.368;4.940;2023-03-01T01:59:52;3.90;99.90
40255;DHT22;25973;52.368;4.940;2023-03-01T02:02:20;3.90;99.90
40255;DHT22;25973;52.368;4.940;2023-03-01T02:04:48;3.90;99.90
40255;DHT22;25973;52.368;4.940;2023-03-01T02:07:17;3.90;99.90
40255;DHT22;25973;52.368;4.940;2023-03-01T02:09:47;3.90;99.90
40255;DHT22;25973;52.368;4.940;2023-03-01T02:12:14;3.90;99.90
40255;DHT22;25973;52.368;4.940;2023-03-01T02:14:40;3.90;99.90
40255;DHT22;25973;52.368;4.940;2023-03-01T02:17:06;3.90;99.90
40255;DHT22;25973;52.368;4.940;2023-03-01T02:22:28;3.80;99.90
40255;DHT22;25973;52.368;4.940;2023-03-01T02:28:05;3.80;99.90
40255;DHT22;25973;52.368;4.940;2023-03-01T02:30:24;3.80;99.90
40255;DHT22;25973;52.368;4.940;2023-03-01T02:32:53;3.80;99.90
40255;DHT22;25973;52.368;4.940;2023-03-01T02:35:20;3.70;99.90
40255;DHT22;25973;52.368;4.940;2023-03-01T02:37:46;3.70;99.90
40255;DHT22;25973;52.368;4.940;2023-03-01T02:40:16;3.70;99.90
40255;DHT22;25973;52.368;4.940;2023-03-01T02:42:57;3.70;99.90
40255;DHT22;25973;52.368;4.940;2023-03-01T02:45:23;3.70;99.90
40255;DHT22;25973;52.368;4.940;2023-03-01T02:47:49;3.70;99.90
40255;DHT22;25973;52.368;4.940;2023-03-01T02:53:09;3.70;99.90
40255;DHT22;25973;52.368;4.940;2023-03-01T02:55:36;3.70;99.90
40255;DHT22;25973;52.368;4.940;2023-03-01T02:58:03;3.60;99.90
40255;DHT22;25973;52.368;4.940;2023-03-01T03:00:34;3.60;99.90
40255;DHT22;25973;52.368;4.940;2023-03-01T03:03:00;3.70;99.90
40255;DHT22;25973;52.368;4.940;2023-03-01T03:05:28;3.60;99.90
40255;DHT22;25973;52.368;4.940;2023-03-01T03:07:55;3.60;99.90
40255;DHT22;25973;52.368;4.940;2023-03-01T03:10:27;3.60;99.90
40255;DHT22;25973;52.368;4.940;2023-03-01T03:12:55;3.60;99.90
40255;DHT22;25973;52.368;4.940;2023-03-01T03:15:21;3.60;99.90
40255;DHT22;25973;52.368;4.940;2023-03-01T03:17:48;3.60;99.90
40255;DHT22;25973;52.368;4.940;2023-03-01T03:20:16;3.60;99.90
40255;DHT22;25973;52.368;4.940;2023-03-01T03:22:46;3.60;99.90
40255;DHT22;25973;52.368;4.940;2023-03-01T03:25:12;3.60;99.90
40255;DHT22;25973;52.368;4.940;2023-03-01T03:27:40;3.60;99.90
40255;DHT22;25973;52.368;4.940;2023-03-01T03:30:07;3.60;99.90
40255;DHT22;25973;52.368;4.940;2023-03-01T03:32:38;3.60;99.90
40255;DHT22;25973;52.368;4.940;2023-03-01T03:35:05;3.60;99.90
40255;DHT22;25973;52.368;4.940;2023-03-01T03:37:36;3.60;99.90
40255;DHT22;25973;52.368;4.940;2023-03-01T03:40:20;3.60;99.90
40255;DHT22;25973;52.368;4.940;2023-03-01T03:42:46;3.60;99.90
40255;DHT22;25973;52.368;4.940;2023-03-01T03:45:12;3.60;99.90
40255;DHT22;25973;52.368;4.940;2023-03-01T03:47:37;3.60;99.90
40255;DHT22;25973;52.368;4.940;2023-03-01T03:50:03;3.60;99.90
40255;DHT22;25973;52.368;4.940;2023-03-01T03:52:28;3.60;99.90
40255;DHT22;25973;52.368;4.940;2023-03-01T03:54:54;3.60;99.90
40255;DHT22;25973;52.368;4.940;2023-03-01T03:57:19;3.60;99.90
40255;DHT22;25973;52.368;4.940;2023-03-01T03:59:46;3.60;99.90
40255;DHT22;25973;52.368;4.940;2023-03-01T04:02:12;3.60;99.90
40255;DHT22;25973;52.368;4.940;2023-03-01T04:04:37;3.60;99.90
40255;DHT22;25973;52.368;4.940;2023-03-01T04:07:03;3.60;99.90
40255;DHT22;25973;52.368;4.940;2023-03-01T04:09:28;3.60;99.90
40255;DHT22;25973;52.368;4.940;2023-03-01T04:11:55;3.60;99.90
40255;DHT22;25973;52.368;4.940;2023-03-01T04:14:21;3.60;99.90
40255;DHT22;25973;52.368;4.940;2023-03-01T04:16:46;3.60;99.90
40255;DHT22;25973;52.368;4.940;2023-03-01T04:19:12;3.60;99.90
40255;DHT22;25973;52.368;4.940;2023-03-01T04:21:37;3.50;99.90
40255;DHT22;25973;52.368;4.940;2023-03-01T04:24:04;3.50;99.90
40255;DHT22;25973;52.368;4.940;2023-03-01T04:26:29;3.50;99.90
40255;DHT22;25973;52.368;4.940;2023-03-01T04:28:55;3.50;99.90
40255;DHT22;25973;52.368;4.940;2023-03-01T04:31:21;3.50;99.90
40255;DHT22;25973;52.368;4.940;2023-03-01T04:33:54;3.40;99.90
40255;DHT22;25973;52.368;4.940;2023-03-01T04:36:23;3.50;99.90
40255;DHT22;25973;52.368;4.940;2023-03-01T04:38:49;3.40;99.90
40255;DHT22;25973;52.368;4.940;2023-03-01T04:41:17;3.40;99.90
40255;DHT22;25973;52.368;4.940;2023-03-01T04:43:43;3.40;99.90
40255;DHT22;25973;52.368;4.940;2023-03-01T04:46:12;3.40;99.90
40255;DHT22;25973;52.368;4.940;2023-03-01T04:48:39;3.40;99.90
40255;DHT22;25973;52.368;4.940;2023-03-01T04:51:06;3.40;99.90
40255;DHT22;25973;52.368;4.940;2023-03-01T04:53:32;3.40;99.90
40255;DHT22;25973;52.368;4.940;2023-03-01T04:55:59;3.50;99.90
40255;DHT22;25973;52.368;4.940;2023-03-01T04:58:25;3.40;99.90
40255;DHT22;25973;52.368;4.940;2023-03-01T05:00:51;3.40;99.90
40255;DHT22;25973;52.368;4.940;2023-03-01T05:03:17;3.40;99.90
40255;DHT22;25973;52.368;4.940;2023-03-01T05:05:45;3.40;99.90
40255;DHT22;25973;52.368;4.940;2023-03-01T05:08:11;3.40;99.90
40255;DHT22;25973;52.368;4.940;2023-03-01T05:10:49;3.40;99.90
40255;DHT22;25973;52.368;4.940;2023-03-01T05:13:15;3.50;99.90
40255;DHT22;25973;52.368;4.940;2023-03-01T05:15:56;3.40;99.90
40255;DHT22;25973;52.368;4.940;2023-03-01T05:18:23;3.50;99.90
40255;DHT22;25973;52.368;4.940;2023-03-01T05:20:51;3.50;99.90
40255;DHT22;25973;52.368;4.940;2023-03-01T05:23:17;3.50;99.90
40255;DHT22;25973;52.368;4.940;2023-03-01T05:25:44;3.50;99.90
40255;DHT22;25973;52.368;4.940;2023-03-01T05:28:11;3.40;99.90
40255;DHT22;25973;52.368;4.940;2023-03-01T05:30:37;3.50;99.90
40255;DHT22;25973;52.368;4.940;2023-03-01T05:33:05;3.50;99.90
40255;DHT22;25973;52.368;4.940;2023-03-01T05:35:32;3.50;99.90
40255;DHT22;25973;52.368;4.940;2023-03-01T05:37:58;3.50;99.90
40255;DHT22;25973;52.368;4.940;2023-03-01T05:40:24;3.60;99.90
40255;DHT22;25973;52.368;4.940;2023-03-01T05:42:53;3.60;99.90
40255;DHT22;25973;52.368;4.940;2023-03-01T05:45:21;3.50;99.90
40255;DHT22;25973;52.368;4.940;2023-03-01T05:47:48;3.60;99.90
40255;DHT22;25973;52.368;4.940;2023-03-01T05:52:45;3.60;99.90
40255;DHT22;25973;52.368;4.940;2023-03-01T05:55:11;3.60;99.90
40255;DHT22;25973;52.368;4.940;2023-03-01T05:57:36;3.60;99.90
40255;DHT22;25973;52.368;4.940;2023-03-01T06:00:02;3.60;99.90
40255;DHT22;25973;52.368;4.940;2023-03-01T06:02:28;3.60;99.90
40255;DHT22;25973;52.368;4.940;2023-03-01T06:04:55;3.60;99.90
40255;DHT22;25973;52.368;4.940;2023-03-01T06:07:20;3.60;99.90
40255;DHT22;25973;52.368;4.940;2023-03-01T06:09:46;3.60;99.90
40255;DHT22;25973;52.368;4.940;2023-03-01T06:12:12;3.60;99.90
40255;DHT22;25973;52.368;4.940;2023-03-01T06:14:37;3.60;99.90
40255;DHT22;25973;52.368;4.940;2023-03-01T06:17:03;3.60;99.90
40255;DHT22;25973;52.368;4.940;2023-03-01T06:19:28;3.60;99.90
40255;DHT22;25973;52.368;4.940;2023-03-01T06:21:54;3.60;99.90
40255;DHT22;25973;52.368;4.940;2023-03-01T06:24:20;3.60;99.90
40255;DHT22;25973;52.368;4.940;2023-03-01T06:26:45;3.60;99.90
40255;DHT22;25973;52.368;4.940;2023-03-01T06:29:11;3.60;99.90
40255;DHT22;25973;52.368;4.940;2023-03-01T06:31:36;3.60;99.90
40255;DHT22;25973;52.368;4.940;2023-03-01T06:34:02;3.60;99.90
40255;DHT22;25973;52.368;4.940;2023-03-01T06:36:28;3.60;99.90
40255;DHT22;25973;52.368;4.940;2023-03-01T06:38:53;3.60;99.90
40255;DHT22;25973;52.368;4.940;2023-03-01T06:41:19;3.60;99.90
40255;DHT22;25973;52.368;4.940;2023-03-01T06:43:44;3.60;99.90
40255;DHT22;25973;52.368;4.940;2023-03-01T06:46:10;3.60;99.90
40255;DHT22;25973;52.368;4.940;2023-03-01T06:48:35;3.60;99.90
40255;DHT22;25973;52.368;4.940;2023-03-01T06:51:01;3.60;99.90
40255;DHT22;25973;52.368;4.940;2023-03-01T06:53:29;3.70;99.90
40255;DHT22;25973;52.368;4.940;2023-03-01T06:55:56;3.70;99.90
40255;DHT22;25973;52.368;4.940;2023-03-01T06:58:22;3.70;99.90
40255;DHT22;25973;52.368;4.940;2023-03-01T07:00:47;3.70;99.90
40255;DHT22;25973;52.368;4.940;2023-03-01T07:03:13;3.70;99.90
40255;DHT22;25973;52.368;4.940;2023-03-01T07:05:38;3.70;99.90
40255;DHT22;25973;52.368;4.940;2023-03-01T07:08:04;3.60;99.90
40255;DHT22;25973;52.368;4.940;2023-03-01T07:10:30;3.70;99.90
40255;DHT22;25973;52.368;4.940;2023-03-01T07:12:58;3.70;99.90
40255;DHT22;25973;52.368;4.940;2023-03-01T07:15:25;3.70;99.90
40255;DHT22;25973;52.368;4.940;2023-03-01T07:17:51;3.60;99.90
40255;DHT22;25973;52.368;4.940;2023-03-01T07:20:18;3.60;99.90
40255;DHT22;25973;52.368;4.940;2023-03-01T07:22:44;3.60;99.90
40255;DHT22;25973;52.368;4.940;2023-03-01T07:25:10;3.60;99.90
40255;DHT22;25973;52.368;4.940;2023-03-01T07:27:36;3.60;99.90
40255;DHT22;25973;52.368;4.940;2023-03-01T07:30:03;3.60;99.90
40255;DHT22;25973;52.368;4.940;2023-03-01T07:32:29;3.60;99.90
40255;DHT22;25973;52.368;4.940;2023-03-01T07:34:54;3.70;99.90
40255;DHT22;25973;52.368;4.940;2023-03-01T07:37:20;3.70;99.90
40255;DHT22;25973;52.368;4.940;2023-03-01T07:39:45;3.70;99.90
40255;DHT22;25973;52.368;4.940;2023-03-01T07:42:11;3.70;99.90
40255;DHT22;25973;52.368;4.940;2023-03-01T07:44:36;3.80;99.90
40255;DHT22;25973;52.368;4.940;2023-03-01T07:47:03;3.80;99.90
40255;DHT22;25973;52.368;4.940;2023-03-01T07:49:29;3.90;99.90
40255;DHT22;25973;52.368;4.940;2023-03-01T07:51:54;4.00;99.90
40255;DHT22;25973;52.368;4.940;2023-03-01T07:54:20;4.00;99.90
40255;DHT22;25973;52.368;4.940;2023-03-01T07:56:46;4.10;99.90
40255;DHT22;25973;52.368;4.940;2023-03-01T07:59:11;4.20;99.90
40255;DHT22;25973;52.368;4.940;2023-03-01T08:01:37;4.40;99.90
40255;DHT22;25973;52.368;4.940;2023-03-01T08:04:03;4.50;99.90
40255;DHT22;25973;52.368;4.940;2023-03-01T08:06:34;4.60;99.90
40255;DHT22;25973;52.368;4.940;2023-03-01T08:09:00;4.60;99.90
40255;DHT22;25973;52.368;4.940;2023-03-01T08:11:25;4.60;99.90
40255;DHT22;25973;52.368;4.940;2023-03-01T08:13:53;4.70;99.90
40255;DHT22;25973;52.368;4.940;2023-03-01T08:16:19;4.70;99.90
40255;DHT22;25973;52.368;4.940;2023-03-01T08:18:45;4.70;99.90
40255;DHT22;25973;52.368;4.940;2023-03-01T08:21:13;4.80;99.90
40255;DHT22;25973;52.368;4.940;2023-03-01T08:23:39;4.90;99.90
40255;DHT22;25973;52.368;4.940;2023-03-01T08:26:09;4.90;99.90
40255;DHT22;25973;52.368;4.940;2023-03-01T08:28:39;4.90;99.90
40255;DHT22;25973;52.368;4.940;2023-03-01T08:31:24;4.90;99.90
40255;DHT22;25973;52.368;4.940;2023-03-01T08:33:52;5.00;99.90
40255;DHT22;25973;52.368;4.940;2023-03-01T08:36:36;5.00;99.90
40255;DHT22;25973;52.368;4.940;2023-03-01T08:39:03;5.00;99.90
40255;DHT22;25973;52.368;4.940;2023-03-01T08:41:28;5.00;99.90
40255;DHT22;25973;52.368;4.940;2023-03-01T08:43:54;4.90;99.90
40255;DHT22;25973;52.368;4.940;2023-03-01T08:46:28;4.90;99.90
40255;DHT22;25973;52.368;4.940;2023-03-01T08:48:53;4.80;99.90
40255;DHT22;25973;52.368;4.940;2023-03-01T08:51:20;4.90;99.90
40255;DHT22;25973;52.368;4.940;2023-03-01T08:53:47;4.90;99.90
40255;DHT22;25973;52.368;4.940;2023-03-01T08:56:13;5.10;99.90
40255;DHT22;25973;52.368;4.940;2023-03-01T08:58:38;5.10;99.90
40255;DHT22;25973;52.368;4.940;2023-03-01T09:01:10;5.20;99.90
40255;DHT22;25973;52.368;4.940;2023-03-01T09:03:37;5.40;99.90
40255;DHT22;25973;52.368;4.940;2023-03-01T09:06:04;5.50;99.90
40255;DHT22;25973;52.368;4.940;2023-03-01T09:08:31;5.60;99.90
40255;DHT22;25973;52.368;4.940;2023-03-01T09:11:04;5.80;99.90
40255;DHT22;25973;52.368;4.940;2023-03-01T09:13:30;5.90;99.90
40255;DHT22;25973;52.368;4.940;2023-03-01T09:15:59;5.90;99.90
40255;DHT22;25973;52.368;4.940;2023-03-01T09:18:25;6.10;99.90
40255;DHT22;25973;52.368;4.940;2023-03-01T09:20:51;6.20;99.90
40255;DHT22;25973;52.368;4.940;2023-03-01T09:23:17;6.40;99.90
40255;DHT22;25973;52.368;4.940;2023-03-01T09:25:42;6.30;99.90
40255;DHT22;25973;52.368;4.940;2023-03-01T09:28:08;6.40;99.90
40255;DHT22;25973;52.368;4.940;2023-03-01T09:30:33;6.50;99.90
40255;DHT22;25973;52.368;4.940;2023-03-01T09:32:59;6.50;99.90
40255;DHT22;25973;52.368;4.940;2023-03-01T09:35:24;6.60;99.90
40255;DHT22;25973;52.368;4.940;2023-03-01T09:37:50;6.70;99.90
40255;DHT22;25973;52.368;4.940;2023-03-01T09:40:19;6.90;99.90
40255;DHT22;25973;52.368;4.940;2023-03-01T09:42:57;7.00;99.90
40255;DHT22;25973;52.368;4.940;2023-03-01T09:45:33;7.10;99.90
40255;DHT22;25973;52.368;4.940;2023-03-01T09:48:00;7.10;99.90
40255;DHT22;25973;52.368;4.940;2023-03-01T09:50:30;7.10;99.90
40255;DHT22;25973;52.368;4.940;2023-03-01T09:53:14;7.10;99.90
40255;DHT22;25973;52.368;4.940;2023-03-01T09:55:59;7.20;99.90
40255;DHT22;25973;52.368;4.940;2023-03-01T09:58:36;7.40;99.90
40255;DHT22;25973;52.368;4.940;2023-03-01T10:09:39;8.00;99.90
40255;DHT22;25973;52.368;4.940;2023-03-01T10:12:14;8.10;99.90
40255;DHT22;25973;52.368;4.940;2023-03-01T10:15:04;8.30;99.90
40255;DHT22;25973;52.368;4.940;2023-03-01T10:17:50;8.40;99.90
40255;DHT22;25973;52.368;4.940;2023-03-01T10:20:23;8.80;99.90
40255;DHT22;25973;52.368;4.940;2023-03-01T10:22:50;9.10;99.90
40255;DHT22;25973;52.368;4.940;2023-03-01T10:31:24;10.60;99.90
40255;DHT22;25973;52.368;4.940;2023-03-01T10:33:55;11.00;99.90
40255;DHT22;25973;52.368;4.940;2023-03-01T10:36:23;11.20;99.90
40255;DHT22;25973;52.368;4.940;2023-03-01T10:38:54;11.30;99.90
40255;DHT22;25973;52.368;4.940;2023-03-01T10:41:22;11.50;99.90
40255;DHT22;25973;52.368;4.940;2023-03-01T10:46:34;11.70;99.90
40255;DHT22;25973;52.368;4.940;2023-03-01T10:49:29;11.50;99.90
40255;DHT22;25973;52.368;4.940;2023-03-01T10:51:55;11.40;99.90
40255;DHT22;25973;52.368;4.940;2023-03-01T10:54:28;10.80;99.90
40255;DHT22;25973;52.368;4.940;2023-03-01T10:57:05;10.30;99.90
40255;DHT22;25973;52.368;4.940;2023-03-01T10:59:36;9.70;99.90
40255;DHT22;25973;52.368;4.940;2023-03-01T11:05:13;8.60;99.90
40255;DHT22;25973;52.368;4.940;2023-03-01T11:07:54;8.10;99.90
40255;DHT22;25973;52.368;4.940;2023-03-01T11:12:49;7.30;99.90
40255;DHT22;25973;52.368;4.940;2023-03-01T11:15:22;7.10;99.90
40255;DHT22;25973;52.368;4.940;2023-03-01T11:17:49;6.90;99.90
40255;DHT22;25973;52.368;4.940;2023-03-01T11:20:18;6.90;99.90
40255;DHT22;25973;52.368;4.940;2023-03-01T11:22:52;6.80;99.90
40255;DHT22;25973;52.368;4.940;2023-03-01T11:25:23;6.70;99.90
40255;DHT22;25973;52.368;4.940;2023-03-01T11:27:49;6.60;99.90
40255;DHT22;25973;52.368;4.940;2023-03-01T11:30:38;6.50;99.90
40255;DHT22;25973;52.368;4.940;2023-03-01T11:35:36;6.40;99.90
40255;DHT22;25973;52.368;4.940;2023-03-01T11:38:23;6.40;99.90
40255;DHT22;25973;52.368;4.940;2023-03-01T11:48:56;6.40;99.90
40255;DHT22;25973;52.368;4.940;2023-03-01T11:51:58;6.30;99.90
40255;DHT22;25973;52.368;4.940;2023-03-01T12:05:49;6.20;99.90
40255;DHT22;25973;52.368;4.940;2023-03-01T12:08:39;6.20;99.90
40255;DHT22;25973;52.368;4.940;2023-03-01T12:22:03;6.20;99.90
40255;DHT22;25973;52.368;4.940;2023-03-01T12:30:22;6.30;99.90
40255;DHT22;25973;52.368;4.940;2023-03-01T12:38:42;6.30;99.90
40255;DHT22;25973;52.368;4.940;2023-03-01T12:41:32;6.40;99.90
40255;DHT22;25973;52.368;4.940;2023-03-01T12:46:44;6.30;99.90
40255;DHT22;25973;52.368;4.940;2023-03-01T12:49:16;6.40;99.90
40255;DHT22;25973;52.368;4.940;2023-03-01T12:51:50;6.40;99.90
40255;DHT22;25973;52.368;4.940;2023-03-01T12:54:26;6.30;99.90
40255;DHT22;25973;52.368;4.940;2023-03-01T12:56:53;6.30;99.90
40255;DHT22;25973;52.368;4.940;2023-03-01T12:59:31;6.40;99.90
40255;DHT22;25973;52.368;4.940;2023-03-01T13:02:27;6.40;99.90
40255;DHT22;25973;52.368;4.940;2023-03-01T13:10:51;6.30;99.90
40255;DHT22;25973;52.368;4.940;2023-03-01T13:13:22;6.20;99.90
40255;DHT22;25973;52.368;4.940;2023-03-01T13:15:48;6.30;99.90
40255;DHT22;25973;52.368;4.940;2023-03-01T13:28:38;6.30;99.90
40255;DHT22;25973;52.368;4.940;2023-03-01T13:31:08;6.30;99.90
40255;DHT22;25973;52.368;4.940;2023-03-01T13:33:44;6.30;99.90
40255;DHT22;25973;52.368;4.940;2023-03-01T13:36:11;6.20;99.90
40255;DHT22;25973;52.368;4.940;2023-03-01T13:39:03;6.20;99.90
40255;DHT22;25973;52.368;4.940;2023-03-01T13:44:26;6.30;99.90
40255;DHT22;25973;52.368;4.940;2023-03-01T13:46:57;6.30;99.90
40255;DHT22;25973;52.368;4.940;2023-03-01T13:49:27;6.30;99.90
40255;DHT22;25973;52.368;4.940;2023-03-01T13:51:54;6.30;99.90
40255;DHT22;25973;52.368;4.940;2023-03-01T13:54:29;6.40;99.90
40255;DHT22;25973;52.368;4.940;2023-03-01T13:56:58;6.40;99.90
40255;DHT22;25973;52.368;4.940;2023-03-01T13:59:24;6.40;99.90
40255;DHT22;25973;52.368;4.940;2023-03-01T14:01:59;6.50;99.90
40255;DHT22;25973;52.368;4.940;2023-03-01T14:04:31;6.50;99.90
40255;DHT22;25973;52.368;4.940;2023-03-01T14:07:21;6.50;99.90
40255;DHT22;25973;52.368;4.940;2023-03-01T14:10:04;6.60;99.90
40255;DHT22;25973;52.368;4.940;2023-03-01T14:12:51;6.70;99.90
40255;DHT22;25973;52.368;4.940;2023-03-01T14:20:47;6.70;99.90
40255;DHT22;25973;52.368;4.940;2023-03-01T14:23:19;6.70;99.90
40255;DHT22;25973;52.368;4.940;2023-03-01T14:25:48;6.70;99.90
40255;DHT22;25973;52.368;4.940;2023-03-01T14:30:48;6.70;99.90
40255;DHT22;25973;52.368;4.940;2023-03-01T14:36:04;6.70;99.90
40255;DHT22;25973;52.368;4.940;2023-03-01T14:38:34;6.70;99.90
40255;DHT22;25973;52.368;4.940;2023-03-01T14:41:06;6.70;99.90
40255;DHT22;25973;52.368;4.940;2023-03-01T14:43:33;6.70;99.90
40255;DHT22;25973;52.368;4.940;2023-03-01T14:45:59;6.70;99.90
40255;DHT22;25973;52.368;4.940;2023-03-01T14:48:26;6.70;99.90
40255;DHT22;25973;52.368;4.940;2023-03-01T14:50:52;6.70;99.90
40255;DHT22;25973;52.368;4.940;2023-03-01T14:53:28;6.80;99.90
40255;DHT22;25973;52.368;4.940;2023-03-01T14:55:56;6.80;99.90
40255;DHT22;25973;52.368;4.940;2023-03-01T14:58:25;6.80;99.90
40255;DHT22;25973;52.368;4.940;2023-03-01T15:01:14;6.90;99.90
40255;DHT22;25973;52.368;4.940;2023-03-01T15:03:43;6.90;99.90
40255;DHT22;25973;52.368;4.940;2023-03-01T15:06:10;6.90;99.90
40255;DHT22;25973;52.368;4.940;2023-03-01T15:08:42;6.90;99.90
40255;DHT22;25973;52.368;4.940;2023-03-01T15:11:23;6.90;99.90
40255;DHT22;25973;52.368;4.940;2023-03-01T15:13:51;6.90;99.90
40255;DHT22;25973;52.368;4.940;2023-03-01T15:16:32;6.90;99.90
40255;DHT22;25973;52.368;4.940;2023-03-01T15:19:06;6.90;99.90
40255;DHT22;25973;52.368;4.940;2023-03-01T15:21:37;6.90;99.90
40255;DHT22;25973;52.368;4.940;2023-03-01T15:26:50;6.90;99.90
40255;DHT22;25973;52.368;4.940;2023-03-01T15:29:21;6.90;99.90
40255;DHT22;25973;52.368;4.940;2023-03-01T15:31:59;6.90;99.90
40255;DHT22;25973;52.368;4.940;2023-03-01T15:34:30;6.90;99.90
40255;DHT22;25973;52.368;4.940;2023-03-01T15:36:58;6.90;99.90
40255;DHT22;25973;52.368;4.940;2023-03-01T15:42:07;7.00;99.90
40255;DHT22;25973;52.368;4.940;2023-03-01T15:44:38;7.00;99.90
40255;DHT22;25973;52.368;4.940;2023-03-01T15:47:29;7.00;99.90
40255;DHT22;25973;52.368;4.940;2023-03-01T15:49:54;7.00;99.90
40255;DHT22;25973;52.368;4.940;2023-03-01T15:52:29;7.00;99.90
40255;DHT22;25973;52.368;4.940;2023-03-01T15:54:59;7.00;99.90
40255;DHT22;25973;52.368;4.940;2023-03-01T15:57:25;7.10;99.90
40255;DHT22;25973;52.368;4.940;2023-03-01T15:59:50;7.10;99.90
40255;DHT22;25973;52.368;4.940;2023-03-01T16:02:16;7.00;99.90
40255;DHT22;25973;52.368;4.940;2023-03-01T16:04:41;7.00;99.90
40255;DHT22;25973;52.368;4.940;2023-03-01T16:07:09;7.00;99.90
40255;DHT22;25973;52.368;4.940;2023-03-01T16:09:38;6.90;99.90
40255;DHT22;25973;52.368;4.940;2023-03-01T16:12:03;6.90;99.90
40255;DHT22;25973;52.368;4.940;2023-03-01T16:14:30;6.80;99.90
40255;DHT22;25973;52.368;4.940;2023-03-01T16:16:56;6.80;99.90
40255;DHT22;25973;52.368;4.940;2023-03-01T16:19:21;6.90;99.90
40255;DHT22;25973;52.368;4.940;2023-03-01T16:21:47;6.90;99.90
40255;DHT22;25973;52.368;4.940;2023-03-01T16:24:14;6.90;99.90
40255;DHT22;25973;52.368;4.940;2023-03-01T16:26:40;6.80;99.90
40255;DHT22;25973;52.368;4.940;2023-03-01T16:29:06;6.80;99.90
40255;DHT22;25973;52.368;4.940;2023-03-01T16:31:32;6.80;99.90
40255;DHT22;25973;52.368;4.940;2023-03-01T16:33:58;6.70;99.90
40255;DHT22;25973;52.368;4.940;2023-03-01T16:36:26;6.70;99.90
40255;DHT22;25973;52.368;4.940;2023-03-01T16:38:54;6.70;99.90
40255;DHT22;25973;52.368;4.940;2023-03-01T16:41:22;6.70;99.90
40255;DHT22;25973;52.368;4.940;2023-03-01T16:43:48;6.60;99.90
40255;DHT22;25973;52.368;4.940;2023-03-01T16:46:19;6.60;99.90
40255;DHT22;25973;52.368;4.940;2023-03-01T16:48:46;6.60;99.90
40255;DHT22;25973;52.368;4.940;2023-03-01T16:51:12;6.50;99.90
40255;DHT22;25973;52.368;4.940;2023-03-01T16:53:38;6.60;99.90
40255;DHT22;25973;52.368;4.940;2023-03-01T16:56:10;6.50;99.90
40255;DHT22;25973;52.368;4.940;2023-03-01T16:58:37;6.50;99.90
40255;DHT22;25973;52.368;4.940;2023-03-01T17:01:23;6.50;99.90
40255;DHT22;25973;52.368;4.940;2023-03-01T17:03:50;6.40;99.90
40255;DHT22;25973;52.368;4.940;2023-03-01T17:06:19;6.40;99.90
40255;DHT22;25973;52.368;4.940;2023-03-01T17:08:45;6.30;99.90
40255;DHT22;25973;52.368;4.940;2023-03-01T17:11:14;6.30;99.90
40255;DHT22;25973;52.368;4.940;2023-03-01T17:13:41;6.30;99.90
40255;DHT22;25973;52.368;4.940;2023-03-01T17:16:11;6.30;99.90
40255;DHT22;25973;52.368;4.940;2023-03-01T17:18:37;6.20;99.90
40255;DHT22;25973;52.368;4.940;2023-03-01T17:21:04;6.30;99.90
40255;DHT22;25973;52.368;4.940;2023-03-01T17:23:31;6.20;99.90
40255;DHT22;25973;52.368;4.940;2023-03-01T17:25:57;6.20;99.90
40255;DHT22;25973;52.368;4.940;2023-03-01T17:28:25;6.20;99.90
40255;DHT22;25973;52.368;4.940;2023-03-01T17:30:51;6.20;99.90
40255;DHT22;25973;52.368;4.940;2023-03-01T17:33:18;6.10;99.90
40255;DHT22;25973;52.368;4.940;2023-03-01T17:35:44;6.10;99.90
40255;DHT22;25973;52.368;4.940;2023-03-01T17:38:12;6.00;99.90
40255;DHT22;25973;52.368;4.940;2023-03-01T17:40:39;6.10;99.90
40255;DHT22;25973;52.368;4.940;2023-03-01T17:43:05;6.10;99.90
40255;DHT22;25973;52.368;4.940;2023-03-01T17:45:30;6.10;99.90
40255;DHT22;25973;52.368;4.940;2023-03-01T17:47:56;6.10;99.90
40255;DHT22;25973;52.368;4.940;2023-03-01T17:50:22;6.10;99.90
40255;DHT22;25973;52.368;4.940;2023-03-01T17:52:47;6.00;99.90
40255;DHT22;25973;52.368;4.940;2023-03-01T17:55:14;6.00;99.90